createdAt,value
2023-01-17T00:02:15.533Z,89.58
2023-01-17T00:05:00.994Z,90.01
2023-01-17T00:08:02.778Z,90.64
2023-01-17T00:10:30.846Z,89.16
2023-01-17T00:13:00.660Z,89.59
2023-01-17T00:15:30.708Z,88.54
2023-01-17T00:17:58.791Z,89.10
2023-01-17T00:20:54.588Z,89.42
2023-01-17T00:23:42.812Z,89.39
2023-01-17T00:26:12.533Z,89.31
2023-01-17T00:28:40.858Z,90.04
2023-01-17T00:31:09.258Z,90.62
2023-01-17T00:33:36.241Z,90.29
2023-01-17T00:36:03.646Z,90.07
2023-01-17T00:38:33.316Z,89.91
2023-01-17T00:41:02.227Z,89.16
2023-01-17T00:43:48.258Z,88.99
2023-01-17T00:46:33.950Z,89.20
2023-01-17T00:49:19.256Z,88.87
2023-01-17T00:52:04.880Z,88.04
2023-01-17T00:54:51.418Z,87.82
2023-01-17T00:57:36.656Z,87.41
2023-01-17T01:00:22.624Z,87.40
2023-01-17T01:03:08.022Z,87.73
2023-01-17T01:05:53.510Z,86.96
2023-01-17T01:08:40.724Z,87.43
2023-01-17T01:11:29.349Z,88.36
2023-01-17T01:14:14.864Z,88.92
2023-01-17T01:17:00.204Z,88.37
2023-01-17T01:19:45.541Z,88.85
2023-01-17T01:22:31.577Z,87.94
2023-01-17T01:25:16.839Z,87.44
2023-01-17T01:28:03.500Z,88.18
2023-01-17T01:30:48.913Z,88.19
2023-01-17T01:33:21.463Z,88.07
2023-01-17T01:35:50.502Z,88.60
2023-01-17T01:38:19.212Z,87.46
2023-01-17T01:40:48.711Z,87.12
2023-01-17T01:43:19.944Z,87.37
2023-01-17T01:45:50.705Z,87.47
2023-01-17T01:48:27.559Z,87.36
2023-01-17T01:50:55.177Z,87.34
2023-01-17T01:53:23.091Z,86.79
2023-01-17T01:55:52.135Z,87.09
2023-01-17T01:58:24.023Z,87.48
2023-01-17T02:00:51.835Z,87.64
2023-01-17T02:03:22.927Z,87.58
2023-01-17T02:05:50.662Z,87.68
2023-01-17T02:08:19.495Z,88.83
2023-01-17T02:10:47.235Z,88.11
2023-01-17T02:13:17.759Z,88.39
2023-01-17T02:15:56.527Z,87.35
2023-01-17T02:18:31.256Z,87.04
2023-01-17T02:21:10.261Z,87.29
2023-01-17T02:24:09.230Z,87.95
2023-01-17T02:26:53.771Z,87.85
2023-01-17T02:30:05.763Z,87.46
2023-01-17T02:32:41.466Z,87.37
2023-01-17T02:35:15.077Z,87.17
2023-01-17T02:37:49.318Z,87.78
2023-01-17T02:40:21.002Z,88.67
2023-01-17T02:42:52.820Z,88.84
2023-01-17T02:45:21.136Z,89.74
2023-01-17T02:47:50.052Z,90.14
2023-01-17T02:50:19.513Z,90.43
2023-01-17T02:52:57.583Z,90.36
2023-01-17T02:55:32.400Z,91.09
2023-01-17T02:58:09.511Z,90.97
2023-01-17T03:00:45.912Z,91.20
2023-01-17T03:03:22.861Z,91.81
2023-01-17T03:05:53.282Z,92.12
2023-01-17T03:08:21.479Z,92.65
2023-01-17T03:10:49.207Z,92.85
2023-01-17T03:13:16.933Z,93.58
2023-01-17T03:15:44.606Z,94.19
2023-01-17T03:18:14.964Z,94.23
2023-01-17T03:20:44.022Z,94.96
2023-01-17T03:23:11.591Z,94.60
2023-01-17T03:25:39.161Z,95.19
2023-01-17T03:28:06.815Z,95.71
2023-01-17T03:30:34.500Z,96.51
2023-01-17T03:33:02.285Z,96.13
2023-01-17T03:35:30.041Z,96.57
2023-01-17T03:37:59.042Z,96.03
2023-01-17T03:40:27.034Z,96.53
2023-01-17T03:42:54.619Z,96.68
2023-01-17T03:45:22.336Z,96.67
2023-01-17T03:47:50.018Z,97.45
2023-01-17T03:50:17.828Z,97.64
2023-01-17T03:52:45.456Z,97.58
2023-01-17T03:55:14.616Z,97.19
2023-01-17T03:57:42.421Z,96.99
2023-01-17T04:00:11.095Z,97.20
2023-01-17T04:02:38.847Z,97.39
2023-01-17T04:05:06.927Z,97.42
2023-01-17T04:07:34.597Z,97.10
2023-01-17T04:12:35.205Z,96.84
2023-01-17T04:15:02.840Z,96.85
2023-01-17T04:17:30.543Z,96.62
2023-01-17T04:19:58.202Z,96.06
2023-01-17T04:22:25.846Z,96.17
2023-01-17T04:24:53.559Z,95.56
2023-01-17T04:27:21.115Z,95.54
2023-01-17T04:29:50.053Z,95.78
2023-01-17T04:32:17.654Z,96.10
2023-01-17T04:34:45.283Z,96.07
2023-01-17T04:37:12.869Z,95.81
2023-01-17T04:39:40.405Z,96.13
2023-01-17T04:42:08.000Z,96.76
2023-01-17T04:44:35.795Z,96.54
2023-01-17T04:47:04.771Z,97.17
2023-01-17T04:49:32.320Z,97.56
2023-01-17T04:51:59.889Z,97.64
2023-01-17T04:54:27.536Z,97.91
2023-01-17T04:56:55.197Z,97.79
2023-01-17T04:59:22.749Z,97.48
2023-01-17T05:01:50.380Z,97.49
2023-01-17T05:04:19.671Z,98.14
2023-01-17T05:06:47.223Z,98.80
2023-01-17T05:09:14.784Z,98.61
2023-01-17T05:11:42.471Z,98.42
2023-01-17T05:14:10.582Z,98.65
2023-01-17T05:16:38.158Z,99.00
2023-01-17T05:19:05.740Z,98.87
2023-01-17T05:21:34.808Z,98.79
2023-01-17T05:24:02.447Z,99.18
2023-01-17T05:26:30.012Z,99.75
2023-01-17T05:28:57.573Z,99.20
2023-01-17T05:31:25.297Z,99.67
2023-01-17T05:33:52.873Z,99.43
2023-01-17T05:36:21.232Z,99.80
2023-01-17T05:38:50.271Z,100.00
2023-01-17T05:41:17.929Z,99.90
2023-01-17T05:43:45.524Z,100.00
2023-01-17T05:46:13.240Z,100.00
2023-01-17T05:48:41.103Z,100.00
2023-01-17T05:51:08.717Z,100.00
2023-01-17T05:53:36.329Z,100.00
2023-01-17T05:56:05.700Z,100.00
2023-01-17T05:58:33.352Z,100.00
2023-01-17T06:01:02.245Z,100.00
2023-01-17T06:03:29.845Z,100.00
2023-01-17T06:05:57.412Z,100.00
2023-01-17T06:08:25.082Z,100.00
2023-01-17T06:10:52.814Z,100.00
2023-01-17T06:13:22.012Z,100.00
2023-01-17T06:15:49.749Z,100.00
2023-01-17T06:18:18.697Z,100.00
2023-01-17T06:20:46.522Z,100.00
2023-01-17T06:23:15.145Z,100.00
2023-01-17T06:25:44.324Z,100.00
2023-01-17T06:28:12.878Z,100.00
2023-01-17T06:30:42.232Z,99.97
2023-01-17T06:33:09.928Z,100.00
2023-01-17T06:35:38.208Z,100.00
2023-01-17T06:38:05.833Z,100.00
2023-01-17T06:40:33.687Z,100.00
2023-01-17T06:43:02.505Z,100.00
2023-01-17T06:45:30.657Z,99.96
2023-01-17T06:47:59.844Z,100.00
2023-01-17T06:50:27.873Z,100.00
2023-01-17T06:52:57.077Z,100.00
2023-01-17T06:55:25.075Z,100.00
2023-01-17T06:57:52.699Z,99.76
2023-01-17T07:00:21.055Z,99.98
2023-01-17T07:02:49.946Z,99.80
2023-01-17T07:05:19.262Z,99.84
2023-01-17T07:07:47.117Z,99.73
2023-01-17T07:10:16.526Z,99.47
2023-01-17T07:12:44.203Z,99.68
2023-01-17T07:15:12.753Z,99.82
2023-01-17T07:17:40.583Z,100.00
2023-01-17T07:20:09.555Z,100.00
2023-01-17T07:22:38.510Z,99.87
2023-01-17T07:25:06.937Z,99.51
2023-01-17T07:27:34.526Z,100.00
2023-01-17T07:30:02.095Z,99.60
2023-01-17T07:32:29.888Z,98.98
2023-01-17T07:34:58.093Z,98.80
2023-01-17T07:37:26.321Z,98.82
2023-01-17T07:39:55.410Z,99.13
2023-01-17T07:42:24.287Z,99.14
2023-01-17T07:44:52.142Z,98.71
2023-01-17T07:47:19.932Z,99.35
2023-01-17T07:49:47.542Z,99.50
2023-01-17T07:52:17.425Z,99.62
2023-01-17T07:54:45.740Z,99.63
2023-01-17T07:57:14.817Z,99.56
2023-01-17T07:59:42.456Z,99.21
2023-01-17T08:02:17.544Z,99.09
2023-01-17T08:04:45.168Z,99.44
2023-01-17T08:07:13.852Z,98.82
2023-01-17T08:09:41.527Z,98.43
2023-01-17T08:12:09.446Z,98.08
2023-01-17T08:14:38.343Z,96.84
2023-01-17T08:17:06.628Z,96.09
2023-01-17T08:19:34.373Z,93.95
2023-01-17T08:22:01.945Z,92.19
2023-01-17T08:24:29.587Z,90.97
2023-01-17T08:26:57.129Z,90.92
2023-01-17T08:29:25.129Z,91.57
2023-01-17T08:31:54.307Z,90.87
2023-01-17T08:34:22.412Z,90.24
2023-01-17T08:36:50.049Z,90.42
2023-01-17T08:39:17.817Z,90.23
2023-01-17T08:41:45.370Z,90.73
2023-01-17T08:44:13.855Z,90.54
2023-01-17T08:46:43.984Z,90.31
2023-01-17T08:49:13.414Z,90.08
2023-01-17T08:51:41.554Z,90.44
2023-01-17T08:54:12.764Z,90.55
2023-01-17T08:56:40.380Z,90.57
2023-01-17T08:59:08.031Z,89.66
2023-01-17T09:01:40.620Z,90.36
2023-01-17T09:04:08.806Z,89.88
2023-01-17T09:06:39.303Z,90.04
2023-01-17T09:09:08.110Z,88.98
2023-01-17T09:11:35.866Z,88.81
2023-01-17T09:14:03.806Z,87.86
2023-01-17T09:16:32.018Z,88.24
2023-01-17T09:19:00.404Z,88.27
2023-01-17T09:21:28.009Z,88.43
2023-01-17T09:23:56.971Z,88.00
2023-01-17T09:26:26.513Z,87.58
2023-01-17T09:28:54.455Z,87.32
2023-01-17T09:31:23.508Z,87.47
2023-01-17T09:33:52.238Z,87.18
2023-01-17T09:36:20.456Z,87.00
2023-01-17T09:38:48.033Z,87.33
2023-01-17T09:41:22.993Z,86.58
2023-01-17T09:43:53.918Z,85.73
2023-01-17T09:46:23.824Z,86.22
2023-01-17T09:48:55.032Z,86.18
2023-01-17T09:51:24.471Z,87.09
2023-01-17T09:53:52.379Z,86.60
2023-01-17T09:56:27.755Z,86.79
2023-01-17T09:59:10.376Z,87.27
2023-01-17T10:01:42.801Z,87.04
2023-01-17T10:04:21.182Z,86.68
2023-01-17T10:06:58.295Z,85.61
2023-01-17T10:09:47.282Z,85.58
2023-01-17T10:12:21.756Z,85.35
2023-01-17T10:15:03.273Z,85.39
2023-01-17T10:17:38.548Z,84.71
2023-01-17T10:20:17.036Z,84.21
2023-01-17T10:23:00.189Z,84.20
2023-01-17T10:25:42.863Z,83.60
2023-01-17T10:28:17.169Z,82.94
2023-01-17T10:30:49.408Z,82.47
2023-01-17T10:33:20.439Z,82.31
2023-01-17T10:35:57.033Z,83.50
2023-01-17T10:38:29.943Z,83.31
2023-01-17T10:41:01.732Z,83.83
2023-01-17T10:43:40.250Z,83.80
2023-01-17T10:46:16.625Z,82.58
2023-01-17T10:48:46.232Z,82.57
2023-01-17T10:51:31.083Z,82.43
2023-01-17T10:54:08.659Z,82.26
2023-01-17T10:56:37.892Z,82.61
2023-01-17T10:59:18.224Z,82.98
2023-01-17T11:01:46.188Z,83.64
2023-01-17T11:04:19.672Z,83.37
2023-01-17T11:06:57.919Z,83.64
2023-01-17T11:09:38.534Z,83.94
2023-01-17T11:12:06.427Z,84.13
2023-01-17T11:14:35.963Z,84.75
2023-01-17T11:17:05.454Z,83.32
2023-01-17T11:19:36.172Z,83.25
2023-01-17T11:22:06.423Z,84.52
2023-01-17T11:24:37.001Z,84.18
2023-01-17T11:27:06.377Z,84.41
2023-01-17T11:29:38.931Z,84.15
2023-01-17T11:32:29.495Z,83.61
2023-01-17T11:35:20.017Z,83.73
2023-01-17T11:37:52.157Z,81.02
2023-01-17T11:40:25.355Z,80.02
2023-01-17T11:43:19.530Z,79.37
2023-01-17T11:46:01.816Z,78.90
2023-01-17T11:48:35.183Z,79.45
2023-01-17T11:51:03.980Z,79.21
2023-01-17T11:53:33.499Z,77.38
2023-01-17T11:56:05.188Z,75.04
2023-01-17T11:58:33.967Z,75.19
2023-01-17T12:01:10.005Z,76.39
2023-01-17T12:03:54.100Z,75.80
2023-01-17T12:06:29.063Z,74.83
2023-01-17T12:09:07.037Z,75.37
2023-01-17T12:12:04.542Z,75.60
2023-01-17T12:14:38.516Z,75.65
2023-01-17T12:17:17.379Z,76.41
2023-01-17T12:20:00.862Z,74.80
2023-01-17T12:22:39.865Z,73.56
2023-01-17T12:25:24.615Z,71.85
2023-01-17T12:28:01.922Z,73.51
2023-01-17T12:30:51.334Z,74.54
2023-01-17T12:33:24.520Z,74.99
2023-01-17T12:35:56.577Z,74.67
2023-01-17T12:38:32.775Z,74.90
2023-01-17T12:41:08.134Z,73.66
2023-01-17T12:43:38.598Z,73.70
2023-01-17T12:46:11.964Z,75.45
2023-01-17T12:48:42.222Z,76.05
2023-01-17T12:51:17.247Z,75.93
2023-01-17T12:53:49.773Z,73.93
2023-01-17T12:56:26.823Z,74.12
2023-01-17T12:59:00.174Z,75.41
2023-01-17T13:01:31.074Z,76.06
2023-01-17T13:04:16.673Z,73.70
2023-01-17T13:06:53.452Z,73.55
2023-01-17T13:09:23.722Z,73.31
2023-01-17T13:11:58.833Z,73.51
2023-01-17T13:14:27.933Z,73.33
2023-01-17T13:16:57.789Z,74.78
2023-01-17T13:19:32.771Z,74.46
2023-01-17T13:22:02.288Z,73.91
2023-01-17T13:24:37.073Z,73.48
2023-01-17T13:27:28.074Z,73.83
2023-01-17T13:30:05.925Z,74.23
2023-01-17T13:32:50.039Z,73.66
2023-01-17T13:35:26.962Z,72.72
2023-01-17T13:38:26.861Z,72.62
2023-01-17T13:40:55.963Z,73.77
2023-01-17T13:43:27.545Z,74.58
2023-01-17T13:45:57.529Z,73.31
2023-01-17T13:48:30.354Z,73.07
2023-01-17T13:51:00.550Z,72.94
2023-01-17T13:53:50.052Z,73.62
2023-01-17T13:56:32.701Z,74.26
2023-01-17T13:59:20.053Z,74.54
2023-01-17T14:01:52.528Z,73.83
2023-01-17T14:04:21.475Z,72.50
2023-01-17T14:06:54.630Z,73.60
2023-01-17T14:09:26.561Z,74.17
2023-01-17T14:12:01.601Z,73.29
2023-01-17T14:14:48.207Z,72.95
2023-01-17T14:17:47.361Z,74.11
2023-01-17T14:20:36.730Z,75.51
2023-01-17T14:23:22.595Z,76.06
2023-01-17T14:25:51.755Z,77.13
2023-01-17T14:28:24.850Z,78.69
2023-01-17T14:30:56.019Z,78.85
2023-01-17T14:33:29.582Z,79.78
2023-01-17T14:35:58.904Z,79.77
2023-01-17T14:38:29.455Z,80.84
2023-01-17T14:40:58.870Z,80.84
2023-01-17T14:43:28.570Z,80.74
2023-01-17T14:46:00.983Z,81.73
2023-01-17T14:48:29.648Z,82.17
2023-01-17T14:51:00.098Z,82.04
2023-01-17T14:53:30.658Z,82.05
2023-01-17T14:56:02.854Z,81.77
2023-01-17T14:58:31.966Z,81.85
2023-01-17T15:01:01.958Z,82.11
2023-01-17T15:03:31.734Z,82.68
2023-01-17T15:06:07.188Z,82.89
2023-01-17T15:08:36.789Z,83.47
2023-01-17T15:11:06.541Z,83.06
2023-01-17T15:13:44.320Z,82.96
2023-01-17T15:16:20.157Z,82.75
2023-01-17T15:18:48.374Z,82.75
2023-01-17T15:21:19.300Z,82.66
2023-01-17T15:23:51.837Z,82.21
2023-01-17T15:26:22.143Z,82.51
2023-01-17T15:28:49.951Z,82.18
2023-01-17T15:31:19.881Z,82.03
2023-01-17T15:33:48.811Z,82.50
2023-01-17T15:36:28.761Z,81.89
2023-01-17T15:39:00.181Z,82.24
2023-01-17T15:41:30.853Z,82.10
2023-01-17T15:43:58.810Z,82.23
2023-01-17T15:46:31.700Z,82.33
2023-01-17T15:49:16.614Z,82.49
2023-01-17T15:51:49.413Z,81.92
2023-01-17T15:54:44.443Z,82.26
2023-01-17T15:57:29.539Z,83.01
2023-01-17T16:00:00.506Z,82.96
2023-01-17T16:02:43.696Z,83.39
2023-01-17T16:05:32.895Z,83.52
2023-01-17T16:08:23.141Z,83.53
2023-01-17T16:10:54.729Z,83.32
2023-01-17T16:13:22.391Z,82.78
2023-01-17T16:15:50.045Z,82.93
2023-01-17T16:18:20.224Z,83.51
2023-01-17T16:20:50.536Z,83.16
2023-01-17T16:23:18.157Z,82.91
2023-01-17T16:25:46.334Z,82.64
2023-01-17T16:28:15.315Z,82.00
2023-01-17T16:30:43.264Z,82.02
2023-01-17T16:33:11.075Z,81.83
2023-01-17T16:35:40.020Z,81.81
2023-01-17T16:38:09.450Z,81.97
2023-01-17T16:40:41.124Z,82.14
2023-01-17T16:43:08.904Z,81.63
2023-01-17T16:45:40.696Z,81.31
2023-01-17T16:48:08.772Z,81.18
2023-01-17T16:50:36.405Z,81.10
2023-01-17T16:53:04.031Z,81.53
2023-01-17T16:55:31.584Z,82.09
2023-01-17T16:57:59.302Z,82.11
2023-01-17T17:00:27.680Z,82.84
2023-01-17T17:02:56.727Z,83.13
2023-01-17T17:05:25.970Z,82.65
2023-01-17T17:07:54.291Z,83.31
2023-01-17T17:10:25.081Z,83.56
2023-01-17T17:12:52.870Z,83.45
2023-01-17T17:15:21.493Z,83.63
2023-01-17T17:17:49.916Z,83.61
2023-01-17T17:20:19.149Z,83.28
2023-01-17T17:22:51.258Z,82.04
2023-01-17T17:25:19.916Z,80.99
2023-01-17T17:27:47.696Z,80.76
2023-01-17T17:30:15.889Z,80.96
2023-01-17T17:32:46.584Z,81.07
2023-01-17T17:35:14.331Z,80.92
2023-01-17T17:37:43.264Z,80.87
2023-01-17T17:40:12.120Z,80.69
2023-01-17T17:42:39.876Z,80.82
2023-01-17T17:45:07.995Z,80.13
2023-01-17T17:47:35.581Z,79.77
2023-01-17T17:50:03.159Z,79.60
2023-01-17T17:52:32.334Z,79.44
2023-01-17T17:55:01.367Z,79.96
2023-01-17T17:57:28.987Z,80.17
2023-01-17T17:59:59.461Z,80.52
2023-01-17T18:02:27.045Z,80.88
2023-01-17T18:04:54.614Z,80.54
2023-01-17T18:07:22.232Z,80.94
2023-01-17T18:09:49.992Z,81.48
2023-01-17T18:12:18.974Z,81.93
2023-01-17T18:14:46.668Z,81.78
2023-01-17T18:17:15.104Z,81.59
2023-01-17T18:19:45.962Z,81.26
2023-01-17T18:22:13.580Z,82.05
2023-01-17T18:24:41.396Z,81.77
2023-01-17T18:27:10.436Z,82.12
2023-01-17T18:29:39.892Z,83.08
2023-01-17T18:32:07.511Z,82.62
2023-01-17T18:34:39.168Z,83.17
2023-01-17T18:37:06.791Z,82.87
2023-01-17T18:39:34.464Z,82.77
2023-01-17T18:42:02.227Z,82.75
2023-01-17T18:44:30.044Z,83.09
2023-01-17T18:47:01.939Z,83.28
2023-01-17T18:49:29.623Z,83.76
2023-01-17T18:51:57.341Z,84.07
2023-01-17T18:54:24.965Z,83.84
2023-01-17T18:56:52.580Z,84.13
2023-01-17T18:59:21.358Z,84.39
2023-01-17T19:01:49.216Z,84.30
2023-01-17T19:04:18.880Z,83.61
2023-01-17T19:06:48.031Z,83.62
2023-01-17T19:09:16.399Z,83.94
2023-01-17T19:11:45.009Z,83.94
2023-01-17T19:14:12.899Z,83.94
2023-01-17T19:16:42.056Z,83.64
2023-01-17T19:19:11.733Z,83.52
2023-01-17T19:21:40.861Z,83.19
2023-01-17T19:24:09.186Z,83.18
2023-01-17T19:26:37.537Z,83.56
2023-01-17T19:29:06.667Z,82.87
2023-01-17T19:31:39.551Z,83.06
2023-01-17T19:34:07.372Z,82.71
2023-01-17T19:36:36.668Z,82.76
2023-01-17T19:39:09.351Z,82.75
2023-01-17T19:41:38.941Z,82.19
2023-01-17T19:44:08.379Z,81.84
2023-01-17T19:46:36.953Z,81.73
2023-01-17T19:49:05.922Z,82.14
2023-01-17T19:51:33.717Z,81.55
2023-01-17T19:54:03.939Z,82.07
2023-01-17T19:56:33.009Z,82.51
2023-01-17T19:59:02.069Z,82.96
2023-01-17T20:01:32.629Z,83.18
2023-01-17T20:04:01.302Z,83.07
2023-01-17T20:06:31.349Z,82.51
2023-01-17T20:08:59.376Z,82.48
2023-01-17T20:11:28.941Z,82.59
2023-01-17T20:13:59.836Z,82.70
2023-01-17T20:16:29.830Z,82.62
2023-01-17T20:18:58.522Z,81.91
2023-01-17T20:21:27.585Z,81.23
2023-01-17T20:23:56.659Z,81.48
2023-01-17T20:26:29.090Z,81.39
2023-01-17T20:28:58.133Z,81.27
2023-01-17T20:31:26.842Z,81.19
2023-01-17T20:33:55.685Z,80.64
2023-01-17T20:36:24.619Z,81.09
2023-01-17T20:38:53.204Z,80.88
2023-01-17T20:41:22.600Z,81.28
2023-01-17T20:43:51.702Z,81.34
2023-01-17T20:46:22.277Z,81.17
2023-01-17T20:48:51.774Z,80.62
2023-01-17T20:51:21.864Z,81.01
2023-01-17T20:53:52.717Z,80.35
2023-01-17T20:56:20.975Z,81.08
2023-01-17T20:58:50.790Z,81.24
2023-01-17T21:01:21.381Z,81.03
2023-01-17T21:03:51.521Z,81.32
2023-01-17T21:06:19.956Z,80.16
2023-01-17T21:08:48.655Z,80.85
2023-01-17T21:11:18.706Z,80.37
2023-01-17T21:13:48.559Z,79.91
2023-01-17T21:16:17.715Z,79.96
2023-01-17T21:18:49.026Z,79.98
2023-01-17T21:21:18.633Z,79.53
2023-01-17T21:23:46.642Z,78.92
2023-01-17T21:26:15.667Z,79.17
2023-01-17T21:28:44.899Z,79.63
2023-01-17T21:31:20.310Z,79.62
2023-01-17T21:33:51.079Z,80.02
2023-01-17T21:36:18.995Z,80.12
2023-01-17T21:38:49.627Z,79.21
2023-01-17T21:41:17.254Z,79.95
2023-01-17T21:43:44.888Z,79.71
2023-01-17T21:46:12.646Z,79.99
2023-01-17T21:48:40.581Z,79.41
2023-01-17T21:51:09.995Z,79.85
2023-01-17T21:53:38.505Z,80.17
2023-01-17T21:56:25.491Z,80.18
2023-01-17T21:58:56.474Z,80.69
2023-01-17T22:01:26.005Z,80.44
2023-01-17T22:03:56.602Z,80.44
2023-01-17T22:06:27.259Z,79.89
2023-01-17T22:08:55.221Z,80.16
2023-01-17T22:11:24.301Z,79.25
2023-01-17T22:13:52.607Z,79.53
2023-01-17T22:16:23.197Z,79.44
2023-01-17T22:18:50.912Z,79.75
2023-01-17T22:21:20.062Z,79.49
2023-01-17T22:23:50.582Z,79.47
2023-01-17T22:26:18.340Z,79.52
2023-01-17T22:28:45.976Z,78.99
2023-01-17T22:31:15.412Z,79.25
2023-01-17T22:33:44.704Z,78.98
2023-01-17T22:36:14.509Z,79.35
2023-01-17T22:38:42.713Z,79.41
2023-01-17T22:41:13.483Z,79.23
2023-01-17T22:43:49.894Z,79.66
2023-01-17T22:46:19.366Z,79.88
2023-01-17T22:48:47.479Z,80.52
2023-01-17T22:51:16.960Z,80.42
2023-01-17T22:53:46.418Z,80.64
2023-01-17T22:56:16.793Z,79.95
2023-01-17T22:58:49.870Z,79.73
2023-01-17T23:01:18.990Z,79.79
2023-01-17T23:03:51.840Z,80.21
2023-01-17T23:06:22.347Z,80.13
2023-01-17T23:08:51.815Z,79.89
2023-01-17T23:11:40.721Z,80.20
2023-01-17T23:14:14.559Z,79.59
2023-01-17T23:17:02.128Z,80.47
2023-01-17T23:19:31.856Z,80.30
2023-01-17T23:22:16.828Z,80.30
2023-01-17T23:24:45.865Z,79.50
2023-01-17T23:27:34.876Z,79.93
2023-01-17T23:30:03.373Z,79.98
2023-01-17T23:32:31.103Z,80.01
2023-01-17T23:34:58.743Z,80.79
2023-01-17T23:37:52.629Z,81.10
2023-01-17T23:40:20.518Z,81.21
2023-01-17T23:43:06.890Z,81.05
2023-01-17T23:45:35.603Z,82.14
2023-01-17T23:48:04.928Z,82.21
2023-01-17T23:50:32.508Z,82.84
2023-01-17T23:53:00.354Z,82.82
2023-01-17T23:55:28.043Z,82.93
2023-01-17T23:57:57.088Z,83.19
